createdAt,value
2019-01-28T00:01:24.515Z,96152.07
2019-01-28T00:03:54.992Z,96152.95
2019-01-28T00:06:25.529Z,96164.16
2019-01-28T00:08:55.720Z,96168.11
2019-01-28T00:11:25.998Z,96170.44
2019-01-28T00:13:56.222Z,96170.84
2019-01-28T00:16:26.482Z,96179.23
2019-01-28T00:18:56.721Z,96179.89
2019-01-28T00:21:26.979Z,96182.30
2019-01-28T00:23:57.564Z,96179.44
2019-01-28T00:26:27.945Z,96186.38
2019-01-28T00:28:58.171Z,96188.02
2019-01-28T00:31:28.717Z,96184.81
2019-01-28T00:33:59.003Z,96184.66
2019-01-28T00:36:29.258Z,96192.52
2019-01-28T00:38:59.509Z,96199.45
2019-01-28T00:41:29.632Z,96200.71
2019-01-28T00:43:59.764Z,96193.16
2019-01-28T00:46:31.386Z,96195.14
2019-01-28T00:49:01.692Z,96201.25
2019-01-28T00:51:32.077Z,96195.48
2019-01-28T00:54:02.229Z,96194.31
2019-01-28T00:56:32.664Z,96194.23
2019-01-28T00:59:02.895Z,96200.53
2019-01-28T01:01:33.595Z,96195.72
2019-01-28T01:04:03.996Z,96198.16
2019-01-28T01:06:34.390Z,96205.98
2019-01-28T01:09:07.462Z,96209.67
2019-01-28T01:11:37.659Z,96215.31
2019-01-28T01:14:07.825Z,96217.75
2019-01-28T01:16:37.960Z,96207.08
2019-01-28T01:19:08.229Z,96211.84
2019-01-28T01:21:38.467Z,96215.31
2019-01-28T01:24:08.807Z,96209.03
2019-01-28T01:26:38.921Z,96215.01
2019-01-28T01:29:10.130Z,96203.77
2019-01-28T01:31:40.959Z,96198.24
2019-01-28T01:34:11.262Z,96199.88
2019-01-28T01:36:41.565Z,96203.92
2019-01-28T01:39:11.697Z,96196.59
2019-01-28T01:41:41.820Z,96196.52
2019-01-28T01:44:12.037Z,96196.52
2019-01-28T01:46:42.243Z,96194.73
2019-01-28T01:49:12.532Z,96193.09
2019-01-28T01:51:42.832Z,96192.64
2019-01-28T01:54:13.004Z,96188.52
2019-01-28T01:56:43.210Z,96189.55
2019-01-28T01:59:13.439Z,96186.15
2019-01-28T02:01:43.698Z,96188.05
2019-01-28T02:04:13.826Z,96180.81
2019-01-28T02:06:44.068Z,96175.40
2019-01-28T02:09:14.345Z,96169.53
2019-01-28T02:11:44.559Z,96165.72
2019-01-28T02:14:14.699Z,96159.56
2019-01-28T02:16:44.892Z,96162.30
2019-01-28T02:19:15.121Z,96161.48
2019-01-28T02:21:46.274Z,96164.66
2019-01-28T02:24:17.069Z,96163.15
2019-01-28T02:26:47.166Z,96159.28
2019-01-28T02:29:17.388Z,96158.34
2019-01-28T02:31:47.648Z,96163.22
2019-01-28T02:34:17.861Z,96156.06
2019-01-28T02:36:48.252Z,96158.48
2019-01-28T02:39:18.355Z,96154.82
2019-01-28T02:41:48.529Z,96147.69
2019-01-28T02:44:18.784Z,96142.93
2019-01-28T02:46:48.992Z,96143.52
2019-01-28T02:49:19.335Z,96138.94
2019-01-28T02:51:49.576Z,96137.75
2019-01-28T02:54:20.091Z,96136.45
2019-01-28T02:56:51.583Z,96140.47
2019-01-28T02:59:21.807Z,96139.70
2019-01-28T03:01:52.090Z,96139.52
2019-01-28T03:04:22.383Z,96134.70
2019-01-28T03:06:52.637Z,96137.13
2019-01-28T03:09:22.793Z,96129.94
2019-01-28T03:11:53.017Z,96132.52
2019-01-28T03:14:23.324Z,96128.05
2019-01-28T03:16:55.076Z,96135.28
2019-01-28T03:19:25.396Z,96121.23
2019-01-28T03:21:55.746Z,96130.23
2019-01-28T03:24:25.893Z,96126.88
2019-01-28T03:26:56.114Z,96134.63
2019-01-28T03:29:29.991Z,96126.91
2019-01-28T03:32:01.395Z,96128.50
2019-01-28T03:34:31.534Z,96133.58
2019-01-28T03:37:01.642Z,96131.96
2019-01-28T03:39:32.941Z,96134.80
2019-01-28T03:42:03.257Z,96126.98
2019-01-28T03:44:33.560Z,96133.28
2019-01-28T03:47:03.684Z,96122.67
2019-01-28T03:49:33.936Z,96123.09
2019-01-28T03:52:04.504Z,96118.95
2019-01-28T03:54:35.102Z,96122.45
2019-01-28T03:57:05.406Z,96118.26
2019-01-28T03:59:35.619Z,96123.09
2019-01-28T04:02:05.817Z,96123.00
2019-01-28T04:04:36.042Z,96122.44
2019-01-28T04:07:06.306Z,96129.22
2019-01-28T04:09:36.446Z,96122.91
2019-01-28T04:12:06.577Z,96128.03
2019-01-28T04:14:36.766Z,96124.59
2019-01-28T04:17:06.862Z,96124.45
2019-01-28T04:19:37.025Z,96126.36
2019-01-28T04:22:07.169Z,96130.33
2019-01-28T04:24:37.492Z,96132.69
2019-01-28T04:27:07.862Z,96130.75
2019-01-28T04:29:38.085Z,96134.88
2019-01-28T04:32:08.581Z,96131.88
2019-01-28T04:34:39.033Z,96134.19
2019-01-28T04:37:09.353Z,96133.12
2019-01-28T04:39:39.653Z,96137.65
2019-01-28T04:42:09.838Z,96138.37
2019-01-28T04:44:39.985Z,96137.25
2019-01-28T04:47:10.209Z,96140.91
2019-01-28T04:49:40.455Z,96143.05
2019-01-28T04:52:10.690Z,96149.45
2019-01-28T04:54:40.928Z,96143.45
2019-01-28T04:57:11.245Z,96136.30
2019-01-28T04:59:41.709Z,96138.45
2019-01-28T05:02:12.215Z,96139.75
2019-01-28T05:04:42.572Z,96135.17
2019-01-28T05:07:12.688Z,96139.52
2019-01-28T05:09:42.882Z,96136.32
2019-01-28T05:12:13.162Z,96136.95
2019-01-28T05:14:43.388Z,96134.41
2019-01-28T05:17:13.696Z,96134.41
2019-01-28T05:19:44.014Z,96139.16
2019-01-28T05:22:14.800Z,96140.28
2019-01-28T05:24:45.143Z,96134.16
2019-01-28T05:27:15.795Z,96136.02
2019-01-28T05:29:46.361Z,96137.63
2019-01-28T05:32:16.630Z,96136.08
2019-01-28T05:34:46.953Z,96127.33
2019-01-28T05:37:17.740Z,96130.52
2019-01-28T05:39:48.340Z,96128.89
2019-01-28T05:42:18.515Z,96136.23
2019-01-28T05:44:50.139Z,96134.64
2019-01-28T05:47:20.691Z,96131.38
2019-01-28T05:49:51.122Z,96123.45
2019-01-28T05:52:21.247Z,96134.22
2019-01-28T05:54:51.542Z,96144.63
2019-01-28T05:57:21.666Z,96136.05
2019-01-28T05:59:51.959Z,96135.50
2019-01-28T06:02:22.128Z,96138.61
2019-01-28T06:04:52.722Z,96138.84
2019-01-28T06:07:23.325Z,96137.27
2019-01-28T06:09:53.522Z,96139.34
2019-01-28T06:12:23.887Z,96135.89
2019-01-28T06:14:54.448Z,96137.95
2019-01-28T06:17:25.134Z,96138.25
2019-01-28T06:19:55.368Z,96139.61
2019-01-28T06:22:25.793Z,96140.44
2019-01-28T06:24:56.268Z,96135.36
2019-01-28T06:27:26.810Z,96142.83
2019-01-28T06:29:57.131Z,96143.95
2019-01-28T06:32:27.270Z,96147.65
2019-01-28T06:34:57.468Z,96153.53
2019-01-28T06:37:27.636Z,96161.52
2019-01-28T06:39:57.971Z,96154.89
2019-01-28T06:42:28.131Z,96156.43
2019-01-28T06:44:58.419Z,96148.48
2019-01-28T06:47:28.601Z,96150.90
2019-01-28T06:49:58.968Z,96150.08
2019-01-28T06:52:29.483Z,96143.16
2019-01-28T06:55:00.025Z,96142.92
2019-01-28T06:57:30.411Z,96144.22
2019-01-28T07:00:00.573Z,96155.84
2019-01-28T07:02:30.703Z,96150.47
2019-01-28T07:05:01.027Z,96154.20
2019-01-28T07:07:31.275Z,96153.90
2019-01-28T07:10:01.581Z,96155.33
2019-01-28T07:12:32.014Z,96157.95
2019-01-28T07:15:02.623Z,96164.22
2019-01-28T07:17:32.798Z,96163.27
2019-01-28T07:20:03.118Z,96164.22
2019-01-28T07:22:33.242Z,96163.59
2019-01-28T07:25:03.512Z,96166.32
2019-01-28T07:27:33.742Z,96166.32
2019-01-28T07:30:07.398Z,96173.72
2019-01-28T07:32:37.671Z,96176.48
2019-01-28T07:35:08.357Z,96175.17
2019-01-28T07:37:39.200Z,96176.44
2019-01-28T07:40:12.241Z,96173.53
2019-01-28T07:42:42.551Z,96176.70
2019-01-28T07:45:16.615Z,96179.17
2019-01-28T07:47:46.951Z,96178.77
2019-01-28T07:50:17.117Z,96173.34
2019-01-28T07:52:47.341Z,96178.27
2019-01-28T07:55:17.501Z,96182.44
2019-01-28T07:57:47.706Z,96174.94
2019-01-28T08:00:20.695Z,96171.97
2019-01-28T08:10:21.649Z,96174.43
2019-01-28T08:12:51.987Z,96180.64
2019-01-28T08:15:23.720Z,96182.50
2019-01-28T08:17:53.985Z,96186.96
2019-01-28T08:20:24.482Z,96179.88
2019-01-28T08:22:56.327Z,96182.73
2019-01-28T08:25:26.908Z,96187.20
2019-01-28T08:27:57.611Z,96191.20
2019-01-28T08:30:38.562Z,96177.87
2019-01-28T08:33:08.851Z,96178.44
2019-01-28T08:35:42.346Z,96175.73
2019-01-28T08:38:12.978Z,96172.31
2019-01-28T08:40:43.461Z,96176.23
2019-01-28T08:43:14.707Z,96167.59
2019-01-28T08:45:46.653Z,96173.30
2019-01-28T08:48:18.433Z,96176.15
2019-01-28T08:50:49.068Z,96170.67
2019-01-28T08:53:19.297Z,96162.44
2019-01-28T08:55:49.699Z,96165.39
2019-01-28T08:58:19.913Z,96166.36
2019-01-28T09:00:50.552Z,96162.05
2019-01-28T09:03:20.873Z,96166.30
2019-01-28T09:05:51.178Z,96166.91
2019-01-28T09:08:21.563Z,96169.42
2019-01-28T09:10:52.212Z,96162.89
2019-01-28T09:13:22.628Z,96164.04
2019-01-28T09:15:52.899Z,96150.11
2019-01-28T09:18:26.403Z,96162.42
2019-01-28T09:20:55.530Z,96166.91
2019-01-28T09:23:25.661Z,96172.80
2019-01-28T09:25:55.993Z,96182.92
2019-01-28T09:28:26.558Z,96178.08
2019-01-28T09:30:57.423Z,96163.80
2019-01-28T09:33:28.276Z,96173.06
2019-01-28T09:35:59.169Z,96184.17
2019-01-28T09:38:29.767Z,96181.56
2019-01-28T09:41:00.197Z,96182.34
2019-01-28T09:43:30.936Z,96175.30
2019-01-28T09:46:01.487Z,96180.87
2019-01-28T09:48:34.393Z,96185.28
2019-01-28T09:51:06.913Z,96201.26
2019-01-28T09:53:37.397Z,96194.79
2019-01-28T09:56:07.856Z,96191.38
2019-01-28T09:58:38.554Z,96194.52
2019-01-28T10:01:09.053Z,96201.81
2019-01-28T10:03:39.693Z,96198.61
2019-01-28T10:06:11.373Z,96201.84
2019-01-28T10:08:41.722Z,96199.48
2019-01-28T10:11:12.200Z,96209.02
2019-01-28T10:13:42.502Z,96199.63
2019-01-28T10:16:13.091Z,96212.27
2019-01-28T10:18:43.709Z,96208.25
2019-01-28T10:21:14.485Z,96200.10
2019-01-28T10:23:44.983Z,96206.59
2019-01-28T10:26:15.713Z,96216.99
2019-01-28T10:28:46.440Z,96205.98
2019-01-28T10:31:17.155Z,96216.33
2019-01-28T10:33:47.934Z,96203.32
2019-01-28T10:36:22.654Z,96218.18
2019-01-28T10:38:51.847Z,96209.09
2019-01-28T10:41:23.442Z,96205.99
2019-01-28T10:43:54.303Z,96200.73
2019-01-28T10:46:24.836Z,96218.20
2019-01-28T10:48:56.026Z,96211.69
2019-01-28T10:51:27.757Z,96211.89
2019-01-28T10:53:58.207Z,96209.74
2019-01-28T10:56:28.827Z,96203.57
2019-01-28T10:58:59.407Z,96212.31
2019-01-28T11:01:30.413Z,96209.59
2019-01-28T11:04:00.976Z,96211.06
2019-01-28T11:06:31.996Z,96204.73
2019-01-28T11:09:02.489Z,96207.11
2019-01-28T11:11:33.232Z,96206.02
2019-01-28T11:14:03.738Z,96209.07
2019-01-28T11:16:34.273Z,96210.47
2019-01-28T11:19:04.960Z,96213.52
2019-01-28T11:21:35.072Z,96193.70
2019-01-28T11:24:05.723Z,96193.20
2019-01-28T11:26:37.449Z,96188.55
2019-01-28T11:29:07.967Z,96194.45
2019-01-28T11:31:38.418Z,96196.67
2019-01-28T11:34:12.783Z,96190.40
2019-01-28T11:36:43.192Z,96195.28
2019-01-28T11:39:14.023Z,96191.53
2019-01-28T11:41:44.371Z,96189.03
2019-01-28T11:44:15.434Z,96193.59
2019-01-28T11:46:48.192Z,96193.37
2019-01-28T11:49:24.014Z,96190.63
2019-01-28T11:51:54.097Z,96170.09
2019-01-28T11:54:24.389Z,96170.09
2019-01-28T11:56:54.667Z,96182.70
2019-01-28T11:59:25.203Z,96173.94
2019-01-28T12:01:55.704Z,96195.63
2019-01-28T12:04:26.043Z,96194.00
2019-01-28T12:06:58.168Z,96194.67
2019-01-28T12:09:28.420Z,96202.83
2019-01-28T12:11:58.813Z,96195.52
2019-01-28T12:14:29.547Z,96198.23
2019-01-28T12:16:59.905Z,96206.77
2019-01-28T12:19:30.212Z,96195.89
2019-01-28T12:22:00.548Z,96213.67
2019-01-28T12:24:31.048Z,96203.92
2019-01-28T12:27:01.559Z,96207.81
2019-01-28T12:29:32.000Z,96205.73
2019-01-28T12:32:02.335Z,96217.28
2019-01-28T12:34:33.037Z,96205.39
2019-01-28T12:37:03.518Z,96202.70
2019-01-28T12:39:37.374Z,96215.77
2019-01-28T12:42:10.352Z,96215.33
2019-01-28T12:44:40.938Z,96217.97
2019-01-28T12:47:11.229Z,96221.70
2019-01-28T12:49:41.549Z,96215.39
2019-01-28T12:52:12.068Z,96226.09
2019-01-28T12:54:42.528Z,96222.44
2019-01-28T12:57:12.827Z,96227.67
2019-01-28T12:59:43.146Z,96229.33
2019-01-28T13:02:13.304Z,96224.62
2019-01-28T13:04:43.714Z,96231.02
2019-01-28T13:07:14.449Z,96233.13
2019-01-28T13:09:45.006Z,96227.43
2019-01-28T13:12:15.828Z,96236.41
2019-01-28T13:14:46.172Z,96239.03
2019-01-28T13:17:16.672Z,96237.88
2019-01-28T13:19:47.230Z,96251.84
2019-01-28T13:22:17.559Z,96239.31
2019-01-28T13:24:47.932Z,96255.97
2019-01-28T13:27:19.010Z,96253.63
2019-01-28T13:29:49.522Z,96246.64
2019-01-28T13:32:20.273Z,96247.69
2019-01-28T13:34:51.428Z,96250.95
2019-01-28T13:37:22.095Z,96255.16
2019-01-28T13:39:52.729Z,96258.94
2019-01-28T13:42:23.149Z,96263.12
2019-01-28T13:44:53.634Z,96258.19
2019-01-28T13:47:23.923Z,96263.14
2019-01-28T13:49:54.743Z,96257.48
2019-01-28T13:52:25.219Z,96270.97
2019-01-28T13:54:55.643Z,96266.37
2019-01-28T13:57:26.528Z,96272.80
2019-01-28T13:59:57.451Z,96281.66
2019-01-28T14:02:27.870Z,96278.41
2019-01-28T14:04:58.574Z,96291.88
2019-01-28T14:07:29.200Z,96288.09
2019-01-28T14:10:00.997Z,96293.21
2019-01-28T14:12:31.538Z,96291.49
2019-01-28T14:15:01.865Z,96295.28
2019-01-28T14:17:32.969Z,96300.15
2019-01-28T14:20:04.816Z,96297.56
2019-01-28T14:22:35.374Z,96298.66
2019-01-28T14:25:06.939Z,96305.27
2019-01-28T14:27:37.404Z,96305.00
2019-01-28T14:30:10.617Z,96311.52
2019-01-28T14:32:40.889Z,96309.52
2019-01-28T14:35:11.134Z,96307.94
2019-01-28T14:37:41.350Z,96308.55
2019-01-28T14:40:14.098Z,96314.51
2019-01-28T14:42:44.540Z,96323.28
2019-01-28T14:45:14.794Z,96328.77
2019-01-28T14:47:45.083Z,96322.20
2019-01-28T14:50:19.114Z,96334.14
2019-01-28T14:52:49.353Z,96329.56
2019-01-28T14:55:20.070Z,96329.60
2019-01-28T14:57:50.474Z,96333.75
2019-01-28T15:00:32.503Z,96334.55
2019-01-28T15:03:02.712Z,96338.69
2019-01-28T15:18:41.056Z,96355.66
2019-01-28T15:29:51.062Z,96377.71
2019-01-28T15:32:22.338Z,96378.88
2019-01-28T15:34:52.964Z,96389.20
2019-01-28T15:37:23.542Z,96387.98
2019-01-28T15:39:53.784Z,96390.01
2019-01-28T15:42:25.152Z,96397.57
2019-01-28T15:44:55.538Z,96401.56
2019-01-28T15:47:26.244Z,96397.77
2019-01-28T15:49:56.465Z,96409.78
2019-01-28T15:52:27.724Z,96408.65
2019-01-28T15:54:58.013Z,96409.66
2019-01-28T15:57:28.659Z,96418.45
2019-01-28T15:59:59.212Z,96416.67
2019-01-28T16:02:29.484Z,96414.58
2019-01-28T16:05:04.463Z,96428.78
2019-01-28T16:07:35.029Z,96431.16
2019-01-28T16:10:07.102Z,96436.66
2019-01-28T16:12:37.693Z,96437.31
2019-01-28T16:15:12.936Z,96445.16
2019-01-28T16:17:43.463Z,96445.18
2019-01-28T16:20:18.511Z,96453.70
2019-01-28T16:22:45.805Z,96461.42
2019-01-28T16:25:16.390Z,96470.55
2019-01-28T16:27:46.953Z,96476.88
2019-01-28T16:30:26.083Z,96479.93
2019-01-28T16:32:55.025Z,96488.36
2019-01-28T16:35:25.585Z,96492.12
2019-01-28T16:37:56.373Z,96491.80
2019-01-28T16:40:26.990Z,96499.02
2019-01-28T16:42:57.876Z,96503.12
2019-01-28T16:45:28.400Z,96505.77
2019-01-28T16:47:58.966Z,96516.20
2019-01-28T16:50:31.149Z,96511.35
2019-01-28T16:53:01.603Z,96523.59
2019-01-28T16:55:32.130Z,96526.34
2019-01-28T16:58:03.048Z,96526.57
2019-01-28T17:00:35.884Z,96532.23
2019-01-28T17:03:07.622Z,96539.12
2019-01-28T17:05:38.483Z,96540.23
2019-01-28T17:08:08.888Z,96546.33
2019-01-28T17:10:39.497Z,96554.33
2019-01-28T17:13:11.041Z,96558.84
2019-01-28T17:15:41.261Z,96563.89
2019-01-28T17:18:11.685Z,96567.61
2019-01-28T17:20:41.924Z,96568.41
2019-01-28T17:23:12.394Z,96577.16
2019-01-28T17:25:47.688Z,96580.08
2019-01-28T17:28:18.179Z,96578.77
2019-01-28T17:30:50.383Z,96583.36
2019-01-28T17:33:20.664Z,96585.45
2019-01-28T17:35:51.389Z,96586.82
2019-01-28T17:38:21.914Z,96592.94
2019-01-28T17:40:52.149Z,96601.70
2019-01-28T17:43:22.817Z,96603.89
2019-01-28T17:45:53.260Z,96615.04
2019-01-28T17:48:23.742Z,96614.73
2019-01-28T17:50:58.402Z,96618.20
2019-01-28T17:53:31.832Z,96616.83
2019-01-28T17:56:02.629Z,96629.94
2019-01-28T17:58:33.122Z,96631.58
2019-01-28T18:01:03.562Z,96635.85
2019-01-28T18:03:33.714Z,96641.25
2019-01-28T18:06:04.399Z,96649.75
2019-01-28T18:08:34.909Z,96652.39
2019-01-28T18:11:05.989Z,96652.39
2019-01-28T18:13:36.239Z,96653.01
2019-01-28T18:16:07.102Z,96653.01
2019-01-28T18:18:37.716Z,96662.33
2019-01-28T18:21:07.954Z,96671.65
2019-01-28T18:23:49.412Z,96665.76
2019-01-28T18:26:21.045Z,96671.64
2019-01-28T18:28:51.727Z,96675.06
2019-01-28T18:31:22.109Z,96684.38
2019-01-28T18:33:52.472Z,96689.43
2019-01-28T18:36:22.725Z,96690.50
2019-01-28T18:38:53.018Z,96696.45
2019-01-28T18:41:23.240Z,96695.56
2019-01-28T18:43:55.326Z,96700.37
2019-01-28T18:46:26.163Z,96708.48
2019-01-28T18:48:56.705Z,96702.40
2019-01-28T18:51:27.044Z,96713.81
2019-01-28T18:53:57.831Z,96713.81
2019-01-28T18:56:28.148Z,96713.87
2019-01-28T18:58:58.513Z,96717.59
2019-01-28T19:01:29.315Z,96723.16
2019-01-28T19:04:01.660Z,96723.67
2019-01-28T19:06:47.537Z,96731.19
2019-01-28T19:09:29.313Z,96732.69
2019-01-28T19:12:12.135Z,96725.80
2019-01-28T19:15:07.463Z,96738.82
2019-01-28T19:17:56.454Z,96740.95
2019-01-28T19:20:44.932Z,96745.49
2019-01-28T19:23:15.496Z,96747.91
2019-01-28T19:25:45.914Z,96748.94
2019-01-28T19:28:16.455Z,96755.61
2019-01-28T19:30:46.854Z,96769.99
2019-01-28T19:33:17.534Z,96771.08
2019-01-28T19:35:48.374Z,96773.25
2019-01-28T19:38:18.987Z,96786.58
2019-01-28T19:40:49.807Z,96791.91
2019-01-28T19:43:20.679Z,96790.09
2019-01-28T19:45:51.421Z,96802.90
2019-01-28T19:48:21.941Z,96803.66
2019-01-28T19:50:54.041Z,96813.81
2019-01-28T19:53:24.850Z,96812.22
2019-01-28T19:55:55.631Z,96817.80
2019-01-28T19:58:26.135Z,96820.45
2019-01-28T20:00:56.627Z,96818.31
2019-01-28T20:03:27.286Z,96824.73
2019-01-28T20:05:57.674Z,96829.25
2019-01-28T20:08:28.021Z,96833.77
2019-01-28T20:10:59.932Z,96841.20
2019-01-28T20:13:30.374Z,96845.20
2019-01-28T20:16:01.008Z,96847.33
2019-01-28T20:18:32.355Z,96851.33
2019-01-28T20:21:05.071Z,96851.61
2019-01-28T20:23:35.762Z,96849.23
2019-01-28T20:26:06.203Z,96856.42
2019-01-28T20:28:36.457Z,96864.12
2019-01-28T20:31:06.988Z,96864.41
2019-01-28T20:33:37.490Z,96870.55
2019-01-28T20:36:08.448Z,96879.88
2019-01-28T20:38:38.955Z,96872.16
2019-01-28T20:41:09.468Z,96882.02
2019-01-28T20:43:40.329Z,96887.91
2019-01-28T20:46:11.880Z,96890.04
2019-01-28T20:48:42.599Z,96889.76
2019-01-28T20:51:13.114Z,96902.80
2019-01-28T20:53:43.653Z,96903.88
2019-01-28T20:56:14.269Z,96912.15
2019-01-28T20:58:47.431Z,96921.75
2019-01-28T21:01:16.659Z,96923.34
2019-01-28T21:03:48.089Z,96922.80
2019-01-28T21:06:18.964Z,96933.19
2019-01-28T21:08:49.307Z,96935.86
2019-01-28T21:11:20.050Z,96951.03
2019-01-28T21:13:50.650Z,96943.84
2019-01-28T21:16:21.285Z,96954.49
2019-01-28T21:18:51.997Z,96957.16
2019-01-28T21:21:23.028Z,96967.27
2019-01-28T21:23:53.390Z,96949.42
2019-01-28T21:26:23.826Z,96976.57
2019-01-28T21:28:54.229Z,96980.84
2019-01-28T21:31:24.711Z,96980.59
2019-01-28T21:33:55.041Z,96985.11
2019-01-28T21:36:40.440Z,96988.30
2019-01-28T21:39:15.485Z,96992.31
2019-01-28T21:41:46.050Z,96990.69
2019-01-28T21:44:17.016Z,96987.76
2019-01-28T21:46:47.332Z,96993.61
2019-01-28T21:49:17.777Z,96999.99
2019-01-28T21:51:50.686Z,96998.67
2019-01-28T21:54:19.974Z,97005.02
2019-01-28T21:56:50.232Z,97009.27
2019-01-28T21:59:20.498Z,97004.69
2019-01-28T22:01:50.862Z,97002.81
2019-01-28T22:04:21.229Z,97007.88
2019-01-28T22:06:51.810Z,97001.80
2019-01-28T22:09:22.000Z,97007.69
2019-01-28T22:11:52.490Z,97002.66
2019-01-28T22:14:22.901Z,97006.11
2019-01-28T22:16:53.569Z,97013.83
2019-01-28T22:19:23.886Z,97015.45
2019-01-28T22:21:59.027Z,97023.97
2019-01-28T22:24:26.078Z,97023.70
2019-01-28T22:26:56.521Z,97034.61
2019-01-28T22:29:26.863Z,97033.28
2019-01-28T22:31:57.183Z,97034.08
2019-01-28T22:34:27.434Z,97039.41
2019-01-28T22:36:58.105Z,97048.20
2019-01-28T22:39:28.393Z,97053.02
2019-01-28T22:41:58.869Z,97044.22
2019-01-28T22:44:29.192Z,97042.90
2019-01-28T22:46:59.843Z,97053.27
2019-01-28T22:49:30.077Z,97063.39
2019-01-28T22:52:07.716Z,97064.14
2019-01-28T22:54:32.451Z,97068.13
2019-01-28T22:57:02.845Z,97067.31
2019-01-28T22:59:33.158Z,97078.20
2019-01-28T23:02:03.751Z,97075.77
2019-01-28T23:04:34.222Z,97080.00
2019-01-28T23:07:04.645Z,97083.98
2019-01-28T23:09:34.878Z,97084.22
2019-01-28T23:12:05.495Z,97086.03
2019-01-28T23:14:35.944Z,97091.84
2019-01-28T23:17:06.290Z,97090.20
2019-01-28T23:19:36.402Z,97087.25
2019-01-28T23:22:06.893Z,97094.68
2019-01-28T23:24:37.024Z,97095.72
2019-01-28T23:27:07.135Z,97093.52
2019-01-28T23:29:37.381Z,97104.09
2019-01-28T23:32:07.754Z,97100.34
2019-01-28T23:34:38.237Z,97099.00
2019-01-28T23:37:08.672Z,97099.50
2019-01-28T23:39:38.970Z,97100.84
2019-01-28T23:42:09.499Z,97096.56
2019-01-28T23:44:40.280Z,97096.80
2019-01-28T23:47:10.602Z,97100.24
2019-01-28T23:49:40.709Z,97094.86
2019-01-28T23:52:11.167Z,97098.25
2019-01-28T23:54:41.328Z,97099.01
2019-01-28T23:57:11.564Z,97099.53
2019-01-28T23:59:41.730Z,97099.22
